Terminal Aerodrome Forecast
Issued by NWS Charleston, WV

Current Version | Previous Version | Graphics & Text | Print | Product List | Glossary On
Versions: 1 2 3 4 5 6 7 8 9 10 11 12 13 14 15 16 17 18 19 20 21 22 23 24
000
FTUS41 KRLX 070800 AAA
TAFEKN
TAF AMD
KEKN 070900Z 0709/0806 00000KT P6SM OVC060
     FM071300 24005KT P6SM FEW045
     FM071400 24009KT P6SM SCT050
     FM071700 24012G18KT P6SM SCT130
     FM080500 24010KT P6SM VCTS BKN060CB=

USA.gov is the U.S. government's official web portal to all federal, state and local government web resources and services.